createdAt,value
2018-12-02T00:00:17.976Z,15.30
2018-12-02T00:02:45.361Z,15.36
2018-12-02T00:05:12.752Z,15.38
2018-12-02T00:07:40.325Z,15.07
2018-12-02T00:10:10.742Z,15.66
2018-12-02T00:12:38.306Z,15.17
2018-12-02T00:15:38.161Z,15.63
2018-12-02T00:18:07.962Z,15.33
2018-12-02T00:20:35.379Z,15.05
2018-12-02T00:23:02.766Z,15.12
2018-12-02T00:25:30.130Z,15.52
2018-12-02T00:27:58.916Z,15.24
2018-12-02T00:30:27.580Z,14.96
2018-12-02T00:32:54.982Z,15.56
2018-12-02T00:35:22.408Z,15.72
2018-12-02T00:37:51.130Z,15.99
2018-12-02T00:40:19.408Z,15.49
2018-12-02T00:42:56.702Z,15.76
2018-12-02T00:45:27.281Z,16.01
2018-12-02T00:47:54.830Z,14.81
2018-12-02T00:50:22.309Z,15.19
2018-12-02T00:52:52.954Z,15.32
2018-12-02T00:55:24.360Z,15.30
2018-12-02T00:57:51.793Z,15.56
2018-12-02T01:00:19.895Z,15.67
2018-12-02T01:02:48.529Z,15.75
2018-12-02T01:05:16.825Z,15.45
2018-12-02T01:07:44.248Z,15.90
2018-12-02T01:10:13.867Z,15.21
2018-12-02T01:12:41.324Z,15.10
2018-12-02T01:15:13.919Z,15.97
2018-12-02T01:17:41.351Z,15.80
2018-12-02T01:20:10.217Z,15.29
2018-12-02T01:22:37.597Z,15.92
2018-12-02T01:25:06.177Z,15.86
2018-12-02T01:27:33.554Z,15.93
2018-12-02T01:30:01.650Z,15.66
2018-12-02T01:32:29.027Z,15.42
2018-12-02T01:34:56.452Z,15.65
2018-12-02T01:37:23.785Z,15.68
2018-12-02T01:39:51.173Z,15.72
2018-12-02T01:42:18.513Z,15.61
2018-12-02T01:44:45.990Z,15.62
2018-12-02T01:47:13.321Z,15.36
2018-12-02T01:49:40.655Z,14.89
2018-12-02T01:52:08.068Z,15.35
2018-12-02T01:54:35.465Z,15.26
2018-12-02T01:57:02.799Z,15.35
2018-12-02T01:59:30.177Z,15.33
2018-12-02T02:01:57.716Z,15.27
2018-12-02T02:04:25.078Z,15.36
2018-12-02T02:06:52.450Z,15.54
2018-12-02T02:09:19.899Z,15.49
2018-12-02T02:11:47.345Z,15.35
2018-12-02T02:14:14.852Z,15.53
2018-12-02T02:16:42.174Z,15.76
2018-12-02T02:19:09.584Z,15.77
2018-12-02T02:21:36.945Z,15.88
2018-12-02T02:24:04.684Z,15.80
2018-12-02T02:26:32.136Z,16.01
2018-12-02T02:28:59.560Z,15.63
2018-12-02T02:31:26.908Z,15.56
2018-12-02T02:33:54.333Z,15.48
2018-12-02T02:36:21.829Z,15.45
2018-12-02T02:38:49.323Z,15.53
2018-12-02T02:41:16.668Z,15.25
2018-12-02T02:43:44.026Z,15.65
2018-12-02T02:46:11.445Z,16.02
2018-12-02T02:48:38.863Z,15.69
2018-12-02T02:51:06.229Z,15.52
2018-12-02T02:53:33.606Z,15.51
2018-12-02T02:56:00.973Z,15.94
2018-12-02T02:58:28.347Z,16.25
2018-12-02T03:00:56.363Z,15.74
2018-12-02T03:03:23.886Z,15.47
2018-12-02T03:05:51.365Z,15.53
2018-12-02T03:08:18.691Z,15.70
2018-12-02T03:10:46.125Z,15.62
2018-12-02T03:13:13.463Z,15.50
2018-12-02T03:15:40.920Z,16.04
2018-12-02T03:18:08.257Z,16.07
2018-12-02T03:20:35.635Z,16.19
2018-12-02T03:23:02.990Z,16.33
2018-12-02T03:25:30.383Z,16.30
2018-12-02T03:27:57.923Z,16.16
2018-12-02T03:30:25.704Z,15.75
2018-12-02T03:32:53.344Z,15.96
2018-12-02T03:35:27.582Z,16.14
2018-12-02T03:37:55.845Z,16.22
2018-12-02T03:40:26.954Z,16.05
2018-12-02T03:42:54.465Z,16.32
2018-12-02T03:45:23.879Z,15.79
2018-12-02T03:47:51.229Z,16.08
2018-12-02T03:50:19.667Z,16.27
2018-12-02T03:52:47.393Z,16.24
2018-12-02T03:55:14.773Z,16.32
2018-12-02T03:57:42.239Z,16.17
2018-12-02T04:00:25.088Z,16.30
2018-12-02T04:02:53.524Z,15.70
2018-12-02T04:05:23.940Z,15.70
2018-12-02T04:07:51.548Z,16.07
2018-12-02T04:10:19.482Z,15.71
2018-12-02T04:12:47.974Z,15.92
2018-12-02T04:15:16.506Z,16.28
2018-12-02T04:17:44.890Z,15.99
2018-12-02T04:20:14.011Z,16.37
2018-12-02T04:22:41.722Z,15.98
2018-12-02T04:25:12.217Z,16.39
2018-12-02T04:27:39.585Z,16.36
2018-12-02T04:30:10.641Z,16.26
2018-12-02T04:32:38.039Z,16.18
2018-12-02T04:35:09.099Z,16.31
2018-12-02T04:37:36.469Z,16.24
2018-12-02T04:40:06.380Z,16.21
2018-12-02T04:42:33.747Z,15.94
2018-12-02T04:45:01.187Z,16.14
2018-12-02T04:47:28.640Z,16.16
2018-12-02T04:49:55.997Z,16.16
2018-12-02T04:52:23.463Z,16.10
2018-12-02T04:54:51.171Z,16.03
2018-12-02T04:57:18.677Z,15.85
2018-12-02T04:59:47.347Z,16.14
2018-12-02T05:02:13.729Z,16.24
2018-12-02T05:04:41.183Z,16.14
2018-12-02T05:07:08.536Z,16.36
2018-12-02T05:09:35.909Z,16.12
2018-12-02T05:12:03.267Z,16.11
2018-12-02T05:14:30.745Z,16.32
2018-12-02T05:16:58.085Z,15.90
2018-12-02T05:19:25.464Z,16.02
2018-12-02T05:21:53.895Z,15.96
2018-12-02T05:24:21.275Z,16.15
2018-12-02T05:26:48.718Z,15.64
2018-12-02T05:29:17.563Z,15.92
2018-12-02T05:31:44.923Z,15.32
2018-12-02T05:34:13.004Z,15.56
2018-12-02T05:36:40.381Z,15.48
2018-12-02T05:39:09.543Z,15.99
2018-12-02T05:41:43.026Z,16.10
2018-12-02T05:44:10.449Z,16.06
2018-12-02T05:46:37.929Z,15.61
2018-12-02T05:49:05.427Z,16.05
2018-12-02T05:51:32.758Z,16.12
2018-12-02T05:54:00.247Z,16.02
2018-12-02T05:56:27.611Z,16.00
2018-12-02T05:58:55.055Z,16.33
2018-12-02T06:01:22.391Z,15.98
2018-12-02T06:03:49.734Z,16.26
2018-12-02T06:06:17.078Z,15.95
2018-12-02T06:08:44.454Z,15.96
2018-12-02T06:11:12.015Z,15.74
2018-12-02T06:13:39.460Z,15.68
2018-12-02T06:16:06.810Z,16.20
2018-12-02T06:18:34.171Z,16.09
2018-12-02T06:21:01.499Z,15.99
2018-12-02T06:23:30.753Z,15.96
2018-12-02T06:25:58.116Z,16.12
2018-12-02T06:28:25.449Z,16.09
2018-12-02T06:30:52.841Z,16.08
2018-12-02T06:33:20.209Z,15.96
2018-12-02T06:35:47.728Z,15.82
2018-12-02T06:38:15.157Z,16.17
2018-12-02T06:40:42.540Z,16.14
2018-12-02T06:43:11.280Z,15.81
2018-12-02T06:45:38.778Z,16.07
2018-12-02T06:48:06.237Z,16.08
2018-12-02T06:50:33.672Z,15.72
2018-12-02T06:53:01.039Z,16.05
2018-12-02T06:55:45.248Z,16.11
2018-12-02T06:58:25.291Z,15.77
2018-12-02T07:01:14.813Z,16.01
2018-12-02T07:03:56.522Z,16.03
2018-12-02T07:06:23.903Z,16.26
2018-12-02T07:08:51.444Z,15.74
2018-12-02T07:11:18.797Z,15.95
2018-12-02T07:13:46.177Z,15.90
2018-12-02T07:16:13.511Z,16.38
2018-12-02T07:18:44.510Z,16.39
2018-12-02T07:21:17.913Z,15.89
2018-12-02T07:23:48.891Z,16.03
2018-12-02T07:26:19.698Z,16.42
2018-12-02T07:28:47.053Z,15.98
2018-12-02T07:31:14.391Z,16.16
2018-12-02T07:33:41.867Z,16.06
2018-12-02T07:36:09.724Z,16.40
2018-12-02T07:38:39.982Z,16.33
2018-12-02T07:41:08.433Z,16.24
2018-12-02T07:43:35.879Z,16.60
2018-12-02T07:46:03.213Z,16.42
2018-12-02T07:48:30.695Z,16.52
2018-12-02T07:50:58.020Z,16.51
2018-12-02T07:53:25.500Z,16.17
2018-12-02T07:55:53.050Z,16.04
2018-12-02T07:58:20.568Z,16.30
2018-12-02T08:00:47.909Z,15.63
2018-12-02T08:03:15.224Z,16.18
2018-12-02T08:05:42.733Z,16.02
2018-12-02T08:08:10.220Z,16.09
2018-12-02T08:10:37.630Z,15.99
2018-12-02T08:13:05.595Z,15.85
2018-12-02T08:15:32.989Z,16.07
2018-12-02T08:18:00.430Z,15.98
2018-12-02T08:20:27.784Z,16.25
2018-12-02T08:22:55.136Z,16.29
2018-12-02T08:25:22.582Z,16.43
2018-12-02T08:27:50.036Z,16.32
2018-12-02T08:30:21.564Z,16.26
2018-12-02T08:32:49.062Z,16.24
2018-12-02T08:35:17.508Z,16.31
2018-12-02T08:37:46.370Z,16.42
2018-12-02T08:40:13.740Z,16.25
2018-12-02T08:42:41.214Z,16.23
2018-12-02T08:45:17.198Z,16.41
2018-12-02T08:47:44.848Z,16.49
2018-12-02T08:50:17.941Z,16.18
2018-12-02T08:52:46.294Z,16.07
2018-12-02T08:55:14.943Z,15.74
2018-12-02T08:57:42.386Z,16.06
2018-12-02T09:00:12.944Z,16.15
2018-12-02T09:02:40.400Z,16.41
2018-12-02T09:05:09.139Z,16.63
2018-12-02T09:07:36.598Z,16.45
2018-12-02T09:10:09.108Z,16.45
2018-12-02T09:12:36.707Z,16.44
2018-12-02T09:15:04.421Z,16.58
2018-12-02T09:17:31.871Z,16.46
2018-12-02T09:19:59.263Z,16.43
2018-12-02T09:22:26.573Z,16.50
2018-12-02T09:24:53.943Z,16.51
2018-12-02T09:27:21.381Z,16.41
2018-12-02T09:29:48.795Z,16.51
2018-12-02T09:32:16.224Z,16.45
2018-12-02T09:34:43.635Z,16.12
2018-12-02T09:37:10.971Z,16.01
2018-12-02T09:39:38.372Z,16.16
2018-12-02T09:42:05.957Z,16.40
2018-12-02T09:44:33.303Z,16.48
2018-12-02T09:47:00.698Z,16.32
2018-12-02T09:49:28.023Z,16.24
2018-12-02T09:51:55.417Z,16.67
2018-12-02T09:54:23.445Z,16.38
2018-12-02T09:56:50.627Z,16.71
2018-12-02T09:59:18.022Z,15.78
2018-12-02T10:01:45.475Z,15.96
2018-12-02T10:04:12.999Z,16.13
2018-12-02T10:06:40.375Z,16.32
2018-12-02T10:09:09.503Z,16.35
2018-12-02T10:11:36.902Z,16.35
2018-12-02T10:14:04.326Z,16.22
2018-12-02T10:16:31.837Z,15.96
2018-12-02T10:18:59.377Z,16.25
2018-12-02T10:21:27.691Z,16.51
2018-12-02T10:23:55.025Z,16.81
2018-12-02T10:26:22.389Z,16.68
2018-12-02T10:28:49.726Z,16.65
2018-12-02T10:31:17.105Z,16.86
2018-12-02T10:33:44.457Z,16.95
2018-12-02T10:36:12.163Z,16.47
2018-12-02T10:38:39.540Z,16.23
2018-12-02T10:41:07.309Z,16.80
2018-12-02T10:43:34.729Z,16.91
2018-12-02T10:46:02.106Z,17.05
2018-12-02T10:48:29.474Z,16.65
2018-12-02T10:50:56.915Z,16.67
2018-12-02T10:53:24.327Z,16.64
2018-12-02T10:55:54.322Z,16.44
2018-12-02T10:58:24.716Z,16.07
2018-12-02T11:00:59.087Z,16.44
2018-12-02T11:03:26.550Z,16.86
2018-12-02T11:05:53.898Z,16.55
2018-12-02T11:08:21.282Z,17.12
2018-12-02T11:10:48.848Z,17.09
2018-12-02T11:13:16.386Z,16.45
2018-12-02T11:15:43.868Z,16.32
2018-12-02T11:18:12.411Z,16.65
2018-12-02T11:20:39.864Z,16.44
2018-12-02T11:23:07.974Z,16.36
2018-12-02T11:25:36.024Z,16.33
2018-12-02T11:28:04.022Z,16.77
2018-12-02T11:30:31.408Z,16.46
2018-12-02T11:32:58.908Z,16.44
2018-12-02T11:35:26.409Z,16.32
2018-12-02T11:37:53.837Z,16.55
2018-12-02T11:40:21.897Z,16.68
2018-12-02T11:42:51.153Z,16.63
2018-12-02T11:45:18.726Z,16.15
2018-12-02T11:47:48.321Z,16.58
2018-12-02T11:50:17.182Z,16.62
2018-12-02T11:52:44.652Z,16.38
2018-12-02T11:55:13.025Z,16.17
2018-12-02T11:57:40.447Z,15.97
2018-12-02T12:00:27.759Z,16.13
2018-12-02T12:02:56.395Z,16.48
2018-12-02T12:05:23.777Z,16.24
2018-12-02T12:07:51.229Z,16.53
2018-12-02T12:10:20.789Z,16.43
2018-12-02T12:12:49.763Z,16.78
2018-12-02T12:15:19.350Z,16.15
2018-12-02T12:17:46.889Z,16.48
2018-12-02T12:20:22.438Z,16.49
2018-12-02T12:22:50.410Z,16.45
2018-12-02T12:25:17.938Z,15.97
2018-12-02T12:27:45.345Z,16.33
2018-12-02T12:30:15.268Z,16.51
2018-12-02T12:32:42.676Z,16.69
2018-12-02T12:35:11.574Z,16.42
2018-12-02T12:37:39.067Z,16.29
2018-12-02T12:40:14.035Z,16.61
2018-12-02T12:42:42.948Z,16.61
2018-12-02T12:45:12.083Z,16.69
2018-12-02T12:47:40.109Z,16.70
2018-12-02T12:50:11.853Z,16.61
2018-12-02T12:52:39.428Z,16.32
2018-12-02T12:55:09.802Z,16.29
2018-12-02T12:57:37.264Z,16.08
2018-12-02T13:00:10.286Z,16.63
2018-12-02T13:02:38.154Z,15.98
2018-12-02T13:05:07.213Z,17.04
2018-12-02T13:07:34.595Z,16.68
2018-12-02T13:10:02.162Z,16.84
2018-12-02T13:12:29.655Z,16.83
2018-12-02T13:14:57.067Z,16.92
2018-12-02T13:17:24.517Z,16.57
2018-12-02T13:19:51.885Z,16.56
2018-12-02T13:22:20.043Z,16.49
2018-12-02T13:24:47.581Z,16.50
2018-12-02T13:27:14.925Z,16.75
2018-12-02T13:29:42.401Z,16.81
2018-12-02T13:32:09.786Z,16.58
2018-12-02T13:34:37.691Z,16.40
2018-12-02T13:37:08.457Z,16.59
2018-12-02T13:39:36.114Z,16.45
2018-12-02T13:42:03.531Z,16.69
2018-12-02T13:44:30.939Z,16.39
2018-12-02T13:46:58.561Z,16.16
2018-12-02T13:49:26.059Z,16.46
2018-12-02T13:51:53.495Z,16.88
2018-12-02T13:54:26.611Z,16.59
2018-12-02T13:56:54.177Z,16.91
2018-12-02T13:59:21.578Z,17.02
2018-12-02T14:01:48.948Z,17.05
2018-12-02T14:04:16.941Z,17.07
2018-12-02T14:06:44.130Z,16.45
2018-12-02T14:09:11.630Z,16.73
2018-12-02T14:11:39.020Z,17.17
2018-12-02T14:14:07.808Z,16.53
2018-12-02T14:17:11.968Z,16.76
2018-12-02T14:19:41.124Z,16.96
2018-12-02T14:22:08.602Z,16.77
2018-12-02T14:24:36.022Z,17.02
2018-12-02T14:27:03.565Z,16.48
2018-12-02T14:29:34.023Z,16.47
2018-12-02T14:32:03.988Z,16.62
2018-12-02T14:34:31.547Z,16.61
2018-12-02T14:36:58.987Z,16.69
2018-12-02T14:39:26.393Z,16.73
2018-12-02T14:41:53.724Z,16.41
2018-12-02T14:44:21.094Z,16.54
2018-12-02T14:46:48.421Z,16.91
2018-12-02T14:49:15.820Z,16.75
2018-12-02T14:51:43.215Z,16.42
2018-12-02T14:54:10.839Z,16.53
2018-12-02T14:56:38.226Z,16.44
2018-12-02T14:59:05.844Z,16.43
2018-12-02T15:01:33.312Z,16.52
2018-12-02T15:04:00.937Z,16.31
2018-12-02T15:06:28.492Z,16.44
2018-12-02T15:08:56.066Z,16.47
2018-12-02T15:11:23.425Z,16.51
2018-12-02T15:13:50.818Z,16.98
2018-12-02T15:16:18.216Z,16.80
2018-12-02T15:18:45.568Z,16.23
2018-12-02T15:21:12.970Z,16.82
2018-12-02T15:23:40.604Z,16.69
2018-12-02T15:26:07.984Z,16.48
2018-12-02T15:28:35.340Z,16.89
2018-12-02T15:31:02.856Z,17.00
2018-12-02T15:33:30.216Z,16.61
2018-12-02T15:35:57.561Z,16.81
2018-12-02T15:38:25.050Z,16.61
2018-12-02T15:40:52.720Z,17.05
2018-12-02T15:43:20.099Z,16.93
2018-12-02T15:45:47.555Z,16.58
2018-12-02T15:48:14.935Z,16.74
2018-12-02T15:50:42.341Z,17.03
2018-12-02T15:53:09.703Z,16.37
2018-12-02T15:55:37.498Z,17.06
2018-12-02T15:58:09.617Z,16.79
2018-12-02T16:00:38.875Z,16.84
2018-12-02T16:03:06.792Z,16.79
2018-12-02T16:05:34.294Z,16.37
2018-12-02T16:08:02.282Z,16.62
2018-12-02T16:10:30.438Z,17.08
2018-12-02T16:12:57.918Z,16.72
2018-12-02T16:15:30.888Z,16.94
2018-12-02T16:17:58.342Z,16.56
2018-12-02T16:20:29.995Z,16.79
2018-12-02T16:22:57.622Z,16.78
2018-12-02T16:25:25.026Z,17.23
2018-12-02T16:27:52.391Z,17.37
2018-12-02T16:30:20.518Z,17.28
2018-12-02T16:32:50.288Z,17.13
2018-12-02T16:35:18.149Z,17.34
2018-12-02T16:37:47.197Z,16.97
2018-12-02T16:40:16.629Z,17.33
2018-12-02T16:42:44.567Z,16.93
2018-12-02T16:45:14.112Z,17.64
2018-12-02T16:47:42.619Z,17.26
2018-12-02T16:50:17.900Z,17.37
2018-12-02T16:52:45.371Z,17.72
2018-12-02T16:55:15.587Z,17.66
2018-12-02T16:57:44.529Z,17.43
2018-12-02T17:00:17.629Z,17.32
2018-12-02T17:02:45.187Z,17.37
2018-12-02T17:05:12.698Z,17.58
2018-12-02T17:10:14.013Z,17.44
2018-12-02T17:12:45.070Z,17.74
2018-12-02T17:15:14.491Z,17.54
2018-12-02T17:17:42.294Z,17.66
2018-12-02T17:20:11.403Z,17.46
2018-12-02T17:22:39.031Z,17.70
2018-12-02T17:25:08.626Z,17.55
2018-12-02T17:27:36.138Z,17.94
2018-12-02T17:30:08.640Z,18.00
2018-12-02T17:32:36.099Z,17.87
2018-12-02T17:35:03.915Z,18.16
2018-12-02T17:37:31.280Z,17.82
2018-12-02T17:39:58.840Z,18.04
2018-12-02T17:42:26.196Z,18.25
2018-12-02T17:44:53.560Z,18.26
2018-12-02T17:47:20.956Z,18.52
2018-12-02T17:49:48.448Z,18.56
2018-12-02T17:52:16.125Z,18.56
2018-12-02T17:54:43.730Z,18.41
2018-12-02T17:57:11.189Z,18.67
2018-12-02T17:59:38.567Z,18.53
2018-12-02T18:02:06.785Z,18.64
2018-12-02T18:04:34.145Z,18.31
2018-12-02T18:07:04.034Z,18.12
2018-12-02T18:09:31.605Z,18.51
2018-12-02T18:11:58.980Z,18.01
2018-12-02T18:14:26.442Z,18.12
2018-12-02T18:16:54.024Z,17.88
2018-12-02T18:19:22.059Z,18.03
2018-12-02T18:21:49.460Z,17.82
2018-12-02T18:24:16.845Z,18.21
2018-12-02T18:26:44.393Z,18.50
2018-12-02T18:29:11.961Z,18.54
2018-12-02T18:31:39.469Z,18.49
2018-12-02T18:34:06.852Z,18.28
2018-12-02T18:36:36.062Z,18.00
2018-12-02T18:39:06.870Z,18.60
2018-12-02T18:41:37.588Z,18.07
2018-12-02T18:44:07.059Z,17.84
2018-12-02T18:46:34.402Z,18.22
2018-12-02T18:49:01.799Z,18.40
2018-12-02T18:51:29.227Z,18.63
2018-12-02T18:53:56.697Z,18.46
2018-12-02T18:56:24.243Z,18.34
2018-12-02T18:58:51.625Z,18.70
2018-12-02T19:01:19.189Z,18.71
2018-12-02T19:03:46.802Z,18.61
2018-12-02T19:06:14.166Z,18.72
2018-12-02T19:08:41.726Z,18.77
2018-12-02T19:11:09.322Z,18.54
2018-12-02T19:13:36.900Z,18.40
2018-12-02T19:16:04.261Z,18.81
2018-12-02T19:18:31.703Z,18.62
2018-12-02T19:21:02.402Z,18.59
2018-12-02T19:23:31.968Z,18.53
2018-12-02T19:25:59.371Z,18.48
2018-12-02T19:28:26.823Z,18.18
2018-12-02T19:30:54.468Z,18.00
2018-12-02T19:33:23.580Z,18.16
2018-12-02T19:35:54.228Z,18.20
2018-12-02T19:38:23.275Z,18.06
2018-12-02T19:40:50.712Z,18.18
2018-12-02T19:43:18.258Z,18.14
2018-12-02T19:45:47.407Z,18.14
2018-12-02T19:48:14.815Z,17.91
2018-12-02T19:50:42.219Z,18.23
2018-12-02T19:53:09.643Z,18.41
2018-12-02T19:55:39.017Z,18.32
2018-12-02T19:58:08.541Z,18.20
2018-12-02T20:00:40.809Z,18.45
2018-12-02T20:03:08.772Z,18.31
2018-12-02T20:05:36.584Z,18.03
2018-12-02T20:08:04.062Z,18.50
2018-12-02T20:10:32.061Z,18.28
2018-12-02T20:13:02.510Z,18.09
2018-12-02T20:15:29.873Z,18.46
2018-12-02T20:17:57.268Z,18.32
2018-12-02T20:20:30.182Z,18.46
2018-12-02T20:22:57.714Z,18.61
2018-12-02T20:25:25.698Z,18.61
2018-12-02T20:27:55.174Z,18.42
2018-12-02T20:30:22.589Z,18.66
2018-12-02T20:32:50.458Z,18.25
2018-12-02T20:35:17.922Z,18.37
2018-12-02T20:37:46.449Z,18.36
2018-12-02T20:40:21.727Z,18.31
2018-12-02T20:42:50.070Z,18.31
2018-12-02T20:45:18.287Z,18.29
2018-12-02T20:47:45.891Z,17.94
2018-12-02T20:50:14.716Z,18.02
2018-12-02T20:52:42.100Z,18.44
2018-12-02T20:55:14.905Z,18.57
2018-12-02T20:57:42.941Z,18.49
2018-12-02T21:00:12.784Z,18.57
2018-12-02T21:02:41.127Z,18.65
2018-12-02T21:05:12.856Z,18.42
2018-12-02T21:07:40.279Z,18.16
2018-12-02T21:10:09.730Z,18.62
2018-12-02T21:12:37.455Z,18.30
2018-12-02T21:15:08.350Z,18.60
2018-12-02T21:17:35.964Z,18.68
2018-12-02T21:20:03.683Z,18.59
2018-12-02T21:22:31.161Z,18.67
2018-12-02T21:24:59.510Z,18.86
2018-12-02T21:27:26.901Z,18.79
2018-12-02T21:29:54.398Z,18.91
2018-12-02T21:32:22.621Z,18.83
2018-12-02T21:34:49.220Z,18.59
2018-12-02T21:37:16.629Z,18.59
2018-12-02T21:39:44.026Z,18.62
2018-12-02T21:42:11.392Z,18.50
2018-12-02T21:44:39.387Z,18.77
2018-12-02T21:47:07.009Z,18.69
2018-12-02T21:49:34.392Z,18.80
2018-12-02T21:52:01.881Z,18.53
2018-12-02T21:54:29.846Z,18.46
2018-12-02T21:56:57.285Z,18.78
2018-12-02T21:59:24.718Z,18.51
2018-12-02T22:01:52.201Z,18.36
2018-12-02T22:04:19.644Z,18.88
2018-12-02T22:06:47.123Z,18.85
2018-12-02T22:09:14.494Z,18.53
2018-12-02T22:11:42.081Z,18.96
2018-12-02T22:14:10.063Z,18.79
2018-12-02T22:16:37.475Z,19.05
2018-12-02T22:19:05.493Z,18.79
2018-12-02T22:21:32.946Z,18.63
2018-12-02T22:24:01.362Z,18.80
2018-12-02T22:26:27.755Z,18.78
2018-12-02T22:28:55.155Z,18.70
2018-12-02T22:31:22.578Z,19.01
2018-12-02T22:33:50.069Z,18.97
2018-12-02T22:36:17.442Z,18.73
2018-12-02T22:38:44.712Z,18.70
2018-12-02T22:41:12.118Z,19.03
2018-12-02T22:43:39.477Z,18.69
2018-12-02T22:46:06.994Z,18.24
2018-12-02T22:48:34.482Z,18.77
2018-12-02T22:51:01.857Z,18.83
2018-12-02T22:53:29.272Z,18.90
2018-12-02T22:55:56.697Z,18.66
2018-12-02T22:58:24.222Z,18.67
2018-12-02T23:00:57.286Z,18.59
2018-12-02T23:03:24.642Z,18.38
2018-12-02T23:05:52.250Z,18.56
2018-12-02T23:08:19.702Z,18.61
2018-12-02T23:10:47.102Z,18.47
2018-12-02T23:13:14.541Z,18.76
2018-12-02T23:15:41.921Z,18.56
2018-12-02T23:18:10.887Z,18.81
2018-12-02T23:20:38.260Z,18.40
2018-12-02T23:23:05.810Z,18.39
2018-12-02T23:25:33.356Z,18.68
2018-12-02T23:28:00.807Z,18.99
2018-12-02T23:30:28.220Z,18.46
2018-12-02T23:32:55.657Z,18.73
2018-12-02T23:35:23.068Z,18.44
2018-12-02T23:37:50.618Z,18.77
2018-12-02T23:40:23.040Z,18.82
2018-12-02T23:42:50.758Z,19.02
2018-12-02T23:45:18.457Z,18.87
2018-12-02T23:47:45.879Z,19.00
2018-12-02T23:50:21.777Z,19.17
2018-12-02T23:52:49.137Z,19.34
2018-12-02T23:55:17.504Z,19.14
2018-12-02T23:57:45.159Z,19.07
